Time;durP1;ratioP1;P1;durP2;ratioP2;P2;SDS_P1;SDS_P2;PMS_P1;PMS_P2;Temp;Humidity;BMP_temperature;BMP_pressure;BME280_temperature;BME280_humidity;BME280_pressure;Samples;Min_cycle;Max_cycle;Signal;HPM_P1;HPM_P2
2023/01/23 00:01:27;;;;;;;13.63;8.87;;;;;;;-141.59;100.00;61776.25;4941514;29;20259;-79
2023/01/23 00:03:55;;;;;;;13.30;8.27;;;;;;;-141.59;100.00;61776.25;4953136;28;20205;-79
2023/01/23 00:06:24;;;;;;;14.00;8.60;;;;;;;-141.59;100.00;61776.25;4951741;28;20225;-80
2023/01/23 00:08:51;;;;;;;14.90;8.23;;;;;;;-141.59;100.00;61776.25;4945681;28;20202;-79
2023/01/23 00:11:20;;;;;;;13.30;8.77;;;;;;;-141.59;100.00;61776.25;4941926;28;20202;-80
2023/01/23 00:13:48;;;;;;;10.83;7.83;;;;;;;-141.59;100.00;61776.25;4940005;29;20262;-80
2023/01/23 00:16:17;;;;;;;13.77;8.67;;;;;;;-141.59;100.00;61776.25;4948841;28;20220;-79
2023/01/23 00:18:45;;;;;;;12.63;8.40;;;;;;;-141.59;100.00;61776.25;4941253;28;20206;-80
2023/01/23 00:21:14;;;;;;;12.27;8.50;;;;;;;-141.59;100.00;61776.25;4951869;28;20219;-80
2023/01/23 00:23:44;;;;;;;12.97;8.67;;;;;;;-141.59;100.00;61776.25;4951032;29;20307;-79
2023/01/23 00:26:14;;;;;;;11.97;8.17;;;;;;;-141.59;100.00;61776.25;4951180;28;20224;-79
2023/01/23 00:28:43;;;;;;;12.67;8.63;;;;;;;-141.59;100.00;61776.25;4950840;29;20240;-80
2023/01/23 00:31:12;;;;;;;12.13;8.20;;;;;;;-141.59;100.00;61776.25;4951034;29;20202;-80
2023/01/23 00:33:40;;;;;;;13.93;8.93;;;;;;;-141.59;100.00;61776.25;4948998;28;20333;-80
2023/01/23 00:36:08;;;;;;;12.27;8.87;;;;;;;-141.59;100.00;61776.25;4950658;29;20495;-79
2023/01/23 00:38:35;;;;;;;12.90;8.83;;;;;;;-141.59;100.00;61776.25;4947837;28;20206;-80
2023/01/23 00:41:07;;;;;;;14.47;9.17;;;;;;;-141.59;100.00;61776.25;4950875;28;20217;-80
2023/01/23 00:43:34;;;;;;;14.63;9.23;;;;;;;-141.59;100.00;61776.25;4952189;28;20243;-80
2023/01/23 00:46:01;;;;;;;13.23;9.07;;;;;;;-141.59;100.00;61776.25;4945966;29;20231;-80
2023/01/23 00:48:28;;;;;;;14.20;8.67;;;;;;;-141.59;100.00;61776.25;4950207;28;20224;-80
2023/01/23 00:50:56;;;;;;;13.57;8.70;;;;;;;-141.59;100.00;61776.25;4941876;28;20239;-80
2023/01/23 00:53:24;;;;;;;12.80;8.80;;;;;;;-141.59;100.00;61776.25;4950616;28;20285;-79
2023/01/23 00:55:52;;;;;;;13.47;9.07;;;;;;;-141.59;100.00;61776.25;4950392;28;20196;-79
2023/01/23 00:58:20;;;;;;;12.10;8.27;;;;;;;-141.59;100.00;61776.25;4951392;28;20216;-79
2023/01/23 01:00:47;;;;;;;12.87;8.73;;;;;;;-141.59;100.00;61776.25;4951949;29;20223;-79
2023/01/23 01:03:14;;;;;;;11.47;8.23;;;;;;;-141.59;100.00;61776.25;4936198;29;20223;-80
2023/01/23 01:05:42;;;;;;;12.17;8.20;;;;;;;-141.59;100.00;61776.25;4938314;28;20225;-79
2023/01/23 01:08:09;;;;;;;12.97;8.67;;;;;;;-141.59;100.00;61776.25;4948473;28;20212;-80
2023/01/23 01:10:36;;;;;;;13.00;8.03;;;;;;;-141.59;100.00;61776.25;4949723;28;20277;-81
2023/01/23 01:13:05;;;;;;;13.03;8.23;;;;;;;-141.59;100.00;61776.25;4939525;29;20204;-79
2023/01/23 01:15:33;;;;;;;12.70;8.07;;;;;;;-141.59;100.00;61776.25;4952435;28;20267;-79
2023/01/23 01:18:00;;;;;;;12.60;8.57;;;;;;;-141.59;100.00;61776.25;4950605;28;20209;-80
2023/01/23 01:20:29;;;;;;;11.50;7.63;;;;;;;-141.59;100.00;61776.25;4943900;29;20312;-80
2023/01/23 01:22:59;;;;;;;12.93;8.20;;;;;;;-141.59;100.00;61776.25;4946201;28;20208;-80
2023/01/23 01:25:26;;;;;;;12.07;7.60;;;;;;;-141.59;100.00;61776.25;4944041;28;20271;-79
2023/01/23 01:27:55;;;;;;;12.17;7.47;;;;;;;-141.59;100.00;61776.25;4950768;28;20222;-80
2023/01/23 01:30:22;;;;;;;12.90;8.10;;;;;;;-141.59;100.00;61776.25;4938821;28;20300;-80
2023/01/23 01:32:50;;;;;;;11.80;7.70;;;;;;;-141.59;100.00;61776.25;4944910;28;20217;-80
2023/01/23 01:35:17;;;;;;;12.23;7.63;;;;;;;-141.59;100.00;61776.25;4946208;28;20254;-80
2023/01/23 01:37:44;;;;;;;14.27;7.90;;;;;;;-141.59;100.00;61776.25;4950574;29;20217;-80
2023/01/23 01:40:14;;;;;;;13.80;8.97;;;;;;;-141.59;100.00;61776.25;4950243;28;20257;-81
2023/01/23 01:42:43;;;;;;;13.30;9.17;;;;;;;-141.59;100.00;61776.25;4951783;29;20202;-79
2023/01/23 01:45:43;;;;;;;16.83;9.33;;;;;;;-141.59;100.00;61776.25;4962795;28;20210;-80
2023/01/23 01:48:11;;;;;;;13.27;8.60;;;;;;;-141.59;100.00;61776.25;4945488;28;20292;-80
2023/01/23 01:50:39;;;;;;;15.80;8.70;;;;;;;-141.59;100.00;61776.25;4938628;29;20198;-79
2023/01/23 01:53:06;;;;;;;12.77;8.60;;;;;;;-141.59;100.00;61776.25;4939533;28;20213;-80
2023/01/23 01:55:34;;;;;;;11.53;7.93;;;;;;;-141.59;100.00;61776.25;4951320;29;20200;-80
2023/01/23 01:58:01;;;;;;;12.90;8.23;;;;;;;-141.59;100.00;61776.25;4936666;29;20197;-79
2023/01/23 02:00:28;;;;;;;14.77;8.60;;;;;;;-141.59;100.00;61776.25;4951544;29;20204;-80
2023/01/23 02:02:58;;;;;;;13.97;8.90;;;;;;;-141.59;100.00;61776.25;4944658;28;20214;-80
2023/01/23 02:05:30;;;;;;;12.87;8.33;;;;;;;-141.59;100.00;61776.25;4952085;29;20209;-80
2023/01/23 02:08:03;;;;;;;12.40;8.27;;;;;;;-141.59;100.00;61776.25;4932633;29;20227;-79
2023/01/23 02:10:31;;;;;;;12.17;8.53;;;;;;;-141.59;100.00;61776.25;4949421;29;20217;-80
2023/01/23 02:13:27;;;;;;;13.33;9.00;;;;;;;-141.59;100.00;61776.25;4930466;29;20202;-80
2023/01/23 02:15:55;;;;;;;14.23;8.57;;;;;;;-141.59;100.00;61776.25;4943844;29;20237;-80
2023/01/23 02:18:22;;;;;;;14.47;8.87;;;;;;;-141.59;100.00;61776.25;4942202;29;20214;-80
2023/01/23 02:20:53;;;;;;;16.13;9.60;;;;;;;-141.59;100.00;61776.25;4946607;29;20248;-80
2023/01/23 02:23:31;;;;;;;14.10;8.67;;;;;;;-141.59;100.00;61776.25;4947543;29;20217;-79
2023/01/23 02:26:03;;;;;;;15.70;9.60;;;;;;;-141.59;100.00;61776.25;4953776;28;20202;-79
2023/01/23 02:28:39;;;;;;;15.87;9.70;;;;;;;-141.59;100.00;61776.25;4948286;29;20225;-80
2023/01/23 02:31:07;;;;;;;16.13;9.53;;;;;;;-141.59;100.00;61776.25;4932913;29;20206;-79
2023/01/23 02:33:47;;;;;;;15.77;9.83;;;;;;;-141.59;100.00;61776.25;4952250;28;20258;-79
2023/01/23 02:36:16;;;;;;;15.57;9.90;;;;;;;-141.59;100.00;61776.25;4952435;28;20230;-80
2023/01/23 02:38:54;;;;;;;15.87;9.40;;;;;;;-141.59;100.00;61776.25;4955375;28;20210;-79
2023/01/23 02:41:28;;;;;;;13.77;9.03;;;;;;;-141.59;100.00;61776.25;4943395;28;20218;-80
2023/01/23 02:43:57;;;;;;;18.37;9.03;;;;;;;-141.59;100.00;61776.25;4951823;28;20218;-79
2023/01/23 02:46:24;;;;;;;14.00;8.63;;;;;;;-141.59;100.00;61776.25;4949671;28;20427;-80
2023/01/23 02:48:52;;;;;;;12.90;8.67;;;;;;;-141.59;100.00;61776.25;4943792;28;20213;-80
2023/01/23 02:51:21;;;;;;;11.80;7.50;;;;;;;-141.59;100.00;61776.25;4939879;29;20213;-80
2023/01/23 02:53:49;;;;;;;10.20;7.27;;;;;;;-141.59;100.00;61776.25;4942733;28;20218;-80
2023/01/23 02:56:18;;;;;;;10.90;7.00;;;;;;;-141.59;100.00;61776.25;4940114;28;20241;-81
2023/01/23 03:01:34;;;;;;;11.80;7.53;;;;;;;-141.59;100.00;61776.25;4939158;29;20202;-80
2023/01/23 03:04:05;;;;;;;12.83;7.60;;;;;;;-141.59;100.00;61776.25;4939860;29;20256;-79
2023/01/23 03:06:36;;;;;;;10.57;7.30;;;;;;;-141.59;100.00;61776.25;4941923;28;20233;-80
2023/01/23 03:09:10;;;;;;;11.80;7.67;;;;;;;-141.59;100.00;61776.25;4944149;28;20213;-80
2023/01/23 03:11:39;;;;;;;10.73;7.10;;;;;;;-141.59;100.00;61776.25;4919464;29;20203;-79
2023/01/23 03:14:10;;;;;;;12.60;7.27;;;;;;;-141.59;100.00;61776.25;4939132;28;20364;-80
2023/01/23 03:16:38;;;;;;;10.30;6.47;;;;;;;-141.59;100.00;61776.25;4946445;28;20233;-79
2023/01/23 03:19:07;;;;;;;10.93;7.20;;;;;;;-141.59;100.00;61776.25;4947715;28;20313;-79
2023/01/23 03:21:36;;;;;;;12.37;7.63;;;;;;;-141.59;100.00;61776.25;4948344;28;20237;-79
2023/01/23 03:24:05;;;;;;;12.93;7.57;;;;;;;-141.59;100.00;61776.25;4946081;28;20202;-79
2023/01/23 03:26:32;;;;;;;10.33;7.07;;;;;;;-141.59;100.00;61776.25;4936842;28;20217;-79
2023/01/23 03:31:45;;;;;;;11.13;7.60;;;;;;;-141.59;100.00;61776.25;4944133;29;20228;-80
2023/01/23 03:34:12;;;;;;;11.20;7.27;;;;;;;-141.59;100.00;61776.25;4947079;29;20301;-80
2023/01/23 03:36:40;;;;;;;10.00;6.57;;;;;;;-141.59;100.00;61776.25;4949961;28;20202;-79
2023/01/23 03:41:55;;;;;;;10.20;6.67;;;;;;;-141.59;100.00;61776.25;4937459;28;20227;-79
2023/01/23 03:44:23;;;;;;;10.33;6.80;;;;;;;-141.59;100.00;61776.25;4949497;29;20285;-79
2023/01/23 03:46:53;;;;;;;11.80;7.50;;;;;;;-141.59;100.00;61776.25;4947822;29;20281;-79
2023/01/23 03:49:20;;;;;;;11.00;6.73;;;;;;;-141.59;100.00;61776.25;4949402;29;20528;-79
2023/01/23 03:51:54;;;;;;;12.07;7.77;;;;;;;-141.59;100.00;61776.25;4944740;29;20237;-80
2023/01/23 03:54:21;;;;;;;11.97;7.83;;;;;;;-141.59;100.00;61776.25;4940446;28;20205;-80
2023/01/23 03:56:48;;;;;;;13.37;8.03;;;;;;;-141.59;100.00;61776.25;4953794;28;20292;-80
2023/01/23 03:59:35;;;;;;;12.60;7.73;;;;;;;-141.59;100.00;61776.25;4945028;29;20224;-79
2023/01/23 04:02:04;;;;;;;13.47;7.70;;;;;;;-141.59;100.00;61776.25;4948129;29;20206;-80
2023/01/23 04:04:31;;;;;;;12.73;8.47;;;;;;;-141.59;100.00;61776.25;4948554;28;20205;-79
2023/01/23 04:06:59;;;;;;;12.23;8.43;;;;;;;-141.59;100.00;61776.25;4941401;29;20229;-80
2023/01/23 04:09:28;;;;;;;12.77;8.37;;;;;;;-141.59;100.00;61776.25;4940131;28;20220;-80
2023/01/23 04:11:59;;;;;;;12.60;8.60;;;;;;;-141.59;100.00;61776.25;4945113;28;20214;-79
2023/01/23 04:14:29;;;;;;;12.13;8.27;;;;;;;-141.59;100.00;61776.25;4946947;29;20202;-80
2023/01/23 04:16:58;;;;;;;12.90;8.40;;;;;;;-141.59;100.00;61776.25;4940686;29;20228;-80
2023/01/23 04:19:26;;;;;;;14.37;8.17;;;;;;;-141.59;100.00;61776.25;4934287;29;20210;-80
2023/01/23 04:21:53;;;;;;;12.20;8.07;;;;;;;-141.59;100.00;61776.25;4944435;29;20279;-80
2023/01/23 04:24:20;;;;;;;12.80;7.43;;;;;;;-141.59;100.00;61776.25;4939625;29;20198;-80
2023/01/23 04:26:48;;;;;;;11.80;7.90;;;;;;;-141.59;100.00;61776.25;4945070;28;20206;-80
2023/01/23 04:29:15;;;;;;;13.07;7.90;;;;;;;-141.59;100.00;61776.25;4944478;29;20278;-79
2023/01/23 04:31:43;;;;;;;12.27;7.83;;;;;;;-141.59;100.00;61776.25;4937473;29;20213;-79
2023/01/23 04:34:12;;;;;;;10.43;7.33;;;;;;;-141.59;100.00;61776.25;4948208;28;20293;-79
2023/01/23 04:36:42;;;;;;;12.17;7.97;;;;;;;-141.59;100.00;61776.25;4946216;28;20338;-79
2023/01/23 04:39:09;;;;;;;11.17;7.53;;;;;;;-141.59;100.00;61776.25;4945253;28;20202;-80
2023/01/23 04:41:37;;;;;;;10.87;7.30;;;;;;;-141.59;100.00;61776.25;4938123;29;20433;-79
2023/01/23 04:44:20;;;;;;;10.70;6.70;;;;;;;-141.59;100.00;61776.25;4941818;28;20265;-79
2023/01/23 04:47:06;;;;;;;13.17;8.70;;;;;;;-141.59;100.00;61776.25;4939162;29;20212;-79
2023/01/23 04:49:34;;;;;;;16.03;8.80;;;;;;;-141.59;100.00;61776.25;4946286;29;20206;-80
2023/01/23 04:52:03;;;;;;;10.90;7.87;;;;;;;-141.59;100.00;61776.25;4948515;28;20211;-79
2023/01/23 04:54:34;;;;;;;13.97;9.17;;;;;;;-141.59;100.00;61776.25;4941852;28;20238;-79
2023/01/23 04:57:01;;;;;;;11.93;7.53;;;;;;;-141.59;100.00;61776.25;4947821;29;20206;-79
2023/01/23 04:59:29;;;;;;;11.43;7.83;;;;;;;-141.59;100.00;61776.25;4943603;28;20252;-79
2023/01/23 05:01:56;;;;;;;11.97;7.80;;;;;;;-141.59;100.00;61776.25;4928076;29;20214;-80
2023/01/23 05:04:24;;;;;;;11.60;7.23;;;;;;;-141.59;100.00;61776.25;4940245;29;20197;-80
2023/01/23 05:06:51;;;;;;;12.60;7.67;;;;;;;-141.59;100.00;61776.25;4946249;29;20215;-79
2023/01/23 05:09:20;;;;;;;12.33;7.80;;;;;;;-141.59;100.00;61776.25;4946745;28;20305;-80
2023/01/23 05:11:52;;;;;;;13.20;7.97;;;;;;;-141.59;100.00;61776.25;4939762;28;20293;-80
2023/01/23 05:14:24;;;;;;;15.13;8.17;;;;;;;-141.59;100.00;61776.25;4947298;29;20234;-79
2023/01/23 05:16:51;;;;;;;11.80;7.67;;;;;;;-141.59;100.00;61776.25;4938005;28;20244;-79
2023/01/23 05:19:20;;;;;;;11.83;7.83;;;;;;;-141.59;100.00;61776.25;4938313;29;20202;-80
2023/01/23 05:21:47;;;;;;;11.80;7.33;;;;;;;-141.59;100.00;61776.25;4949236;29;20232;-80
2023/01/23 05:24:17;;;;;;;11.00;7.17;;;;;;;-141.59;100.00;61776.25;4935219;29;20205;-79
2023/01/23 05:26:48;;;;;;;12.70;7.57;;;;;;;-141.59;100.00;61776.25;4946471;29;20292;-80
2023/01/23 05:29:15;;;;;;;14.10;7.77;;;;;;;-141.59;100.00;61776.25;4950040;29;20222;-80
2023/01/23 05:31:52;;;;;;;17.57;11.27;;;;;;;-141.59;100.00;61776.25;4944657;29;20282;-80
2023/01/23 05:34:38;;;;;;;18.17;10.83;;;;;;;-141.59;100.00;61776.25;4951646;29;20236;-80
2023/01/23 05:37:14;;;;;;;17.80;8.97;;;;;;;-141.59;100.00;61776.25;4941866;28;20293;-80
2023/01/23 05:39:45;;;;;;;14.20;8.77;;;;;;;-141.59;100.00;61776.25;4947167;29;20210;-80
2023/01/23 05:42:13;;;;;;;11.97;7.60;;;;;;;-141.59;100.00;61776.25;4941171;29;20201;-79
2023/01/23 05:45:16;;;;;;;12.07;7.47;;;;;;;-141.59;100.00;61776.25;4936592;28;20335;-80
2023/01/23 05:47:44;;;;;;;13.87;8.57;;;;;;;-141.59;100.00;61776.25;4946874;29;20246;-80
2023/01/23 05:50:15;;;;;;;12.90;8.37;;;;;;;-141.59;100.00;61776.25;4943544;29;20297;-80
2023/01/23 05:52:44;;;;;;;13.93;8.07;;;;;;;-141.59;100.00;61776.25;4948490;29;20257;-80
2023/01/23 05:55:11;;;;;;;13.63;8.10;;;;;;;-141.59;100.00;61776.25;4940473;29;20301;-80
2023/01/23 05:57:42;;;;;;;12.23;7.00;;;;;;;-141.59;100.00;61776.25;4946548;29;20242;-80
2023/01/23 06:00:28;;;;;;;9.13;6.00;;;;;;;-141.59;100.00;61776.25;4950388;29;20216;-80
2023/01/23 06:03:15;;;;;;;8.93;5.60;;;;;;;-141.59;100.00;61776.25;4940183;29;20210;-80
2023/01/23 06:05:51;;;;;;;16.10;8.13;;;;;;;-141.59;100.00;61776.25;4949301;29;20204;-81
2023/01/23 06:08:19;;;;;;;9.30;5.43;;;;;;;-141.59;100.00;61776.25;4947955;28;20253;-81
2023/01/23 06:10:46;;;;;;;11.23;6.40;;;;;;;-141.59;100.00;61776.25;4934292;29;20203;-80
2023/01/23 06:13:15;;;;;;;8.97;4.83;;;;;;;-141.59;100.00;61776.25;4944617;29;20299;-80
2023/01/23 06:15:42;;;;;;;11.43;5.17;;;;;;;-141.59;100.00;61776.25;4928834;29;20228;-79
2023/01/23 06:18:11;;;;;;;10.80;4.73;;;;;;;-141.59;100.00;61776.25;4959153;28;20203;-80
2023/01/23 06:20:39;;;;;;;7.43;3.80;;;;;;;-141.59;100.00;61776.25;4950170;28;20193;-81
2023/01/23 06:23:06;;;;;;;8.37;3.93;;;;;;;-141.59;100.00;61776.25;4954372;28;20210;-80
2023/01/23 06:25:33;;;;;;;9.37;3.87;;;;;;;-141.59;100.00;61776.25;4937248;29;20197;-80
2023/01/23 06:28:04;;;;;;;5.57;4.03;;;;;;;-141.59;100.00;61776.25;4949421;29;20247;-80
2023/01/23 06:30:36;;;;;;;10.83;3.63;;;;;;;-141.59;100.00;61776.25;4947018;29;20487;-80
2023/01/23 06:33:08;;;;;;;4.70;3.30;;;;;;;-141.59;100.00;61776.25;4952502;29;20205;-79
2023/01/23 06:35:40;;;;;;;6.83;3.70;;;;;;;-141.59;100.00;61776.25;4947875;29;20280;-80
2023/01/23 06:38:07;;;;;;;5.60;3.87;;;;;;;-141.59;100.00;61776.25;4939007;29;20206;-80
2023/01/23 06:40:34;;;;;;;6.50;3.33;;;;;;;-141.59;100.00;61776.25;4947823;29;20211;-79
2023/01/23 06:43:24;;;;;;;12.67;3.63;;;;;;;-141.59;100.00;61776.25;4951436;29;20267;-81
2023/01/23 06:45:52;;;;;;;8.10;3.73;;;;;;;-141.59;100.00;61776.25;4938215;29;20212;-80
2023/01/23 06:48:20;;;;;;;10.27;4.33;;;;;;;-141.59;100.00;61776.25;4928075;29;20222;-79
2023/01/23 06:50:48;;;;;;;5.53;3.20;;;;;;;-141.59;100.00;61776.25;4953490;28;20202;-83
2023/01/23 06:53:17;;;;;;;4.83;3.00;;;;;;;-141.59;100.00;61776.25;4943645;28;20206;-81
2023/01/23 06:55:45;;;;;;;11.27;3.47;;;;;;;-141.59;100.00;61776.25;4933624;29;20296;-80
2023/01/23 06:58:14;;;;;;;10.90;4.03;;;;;;;-141.59;100.00;61776.25;4950757;29;20209;-80
2023/01/23 07:00:43;;;;;;;5.93;3.97;;;;;;;-141.59;100.00;61776.25;4947622;29;20296;-80
2023/01/23 07:03:14;;;;;;;8.60;3.93;;;;;;;-141.59;100.00;61776.25;4938930;29;20300;-80
2023/01/23 07:05:42;;;;;;;8.80;3.53;;;;;;;-141.59;100.00;61776.25;4949710;29;20297;-80
2023/01/23 07:08:10;;;;;;;6.80;3.53;;;;;;;-141.59;100.00;61776.25;4945353;28;20225;-80
2023/01/23 07:10:38;;;;;;;9.37;4.33;;;;;;;-141.59;100.00;61776.25;4948142;28;20256;-81
2023/01/23 07:13:06;;;;;;;6.33;4.00;;;;;;;-141.59;100.00;61776.25;4939612;28;20216;-80
2023/01/23 07:15:34;;;;;;;13.67;4.50;;;;;;;-141.59;100.00;61776.25;4947762;28;20220;-81
2023/01/23 07:18:01;;;;;;;8.77;4.13;;;;;;;-141.59;100.00;61776.25;4945344;29;20297;-80
2023/01/23 07:20:30;;;;;;;15.67;3.97;;;;;;;-141.59;100.00;61776.25;4940512;28;20202;-80
2023/01/23 07:22:59;;;;;;;14.90;4.00;;;;;;;-141.59;100.00;61776.25;4943548;28;20213;-80
2023/01/23 07:25:27;;;;;;;7.27;3.73;;;;;;;-141.59;100.00;61776.25;4943683;28;20212;-80
2023/01/23 07:27:54;;;;;;;7.53;3.70;;;;;;;-141.59;100.00;61776.25;4945156;28;20205;-81
2023/01/23 07:30:21;;;;;;;7.27;4.00;;;;;;;-141.59;100.00;61776.25;4953813;28;20244;-80
2023/01/23 07:32:48;;;;;;;7.83;3.80;;;;;;;-141.59;100.00;61776.25;4944168;28;20212;-80
2023/01/23 07:35:15;;;;;;;9.13;4.63;;;;;;;-141.59;100.00;61776.25;4941600;29;20257;-81
2023/01/23 07:37:44;;;;;;;6.37;3.93;;;;;;;-141.59;100.00;61776.25;4948692;29;20256;-80
2023/01/23 07:40:13;;;;;;;7.17;4.00;;;;;;;-141.59;100.00;61776.25;4938973;28;20335;-80
2023/01/23 07:42:40;;;;;;;5.13;3.47;;;;;;;-141.59;100.00;61776.25;4940389;29;20198;-80
2023/01/23 07:45:10;;;;;;;8.60;4.37;;;;;;;-141.59;100.00;61776.25;4944925;28;20252;-80
2023/01/23 07:47:38;;;;;;;8.07;4.17;;;;;;;-141.59;100.00;61776.25;4938606;29;20193;-80
2023/01/23 07:50:09;;;;;;;5.47;3.70;;;;;;;-141.59;100.00;61776.25;4949037;29;20257;-80
2023/01/23 07:52:36;;;;;;;23.97;11.80;;;;;;;-141.59;100.00;61776.25;4943196;28;20193;-80
2023/01/23 07:55:06;;;;;;;39.50;18.23;;;;;;;-141.59;100.00;61776.25;4936168;29;20228;-80
2023/01/23 07:57:34;;;;;;;15.00;7.77;;;;;;;-141.59;100.00;61776.25;4937736;29;20284;-80
2023/01/23 08:00:01;;;;;;;7.73;4.37;;;;;;;-141.59;100.00;61776.25;4947064;28;20384;-80
2023/01/23 08:02:28;;;;;;;9.90;4.17;;;;;;;-141.59;100.00;61776.25;4962679;28;20301;-81
2023/01/23 08:04:55;;;;;;;6.80;4.40;;;;;;;-141.59;100.00;61776.25;4959925;28;20207;-80
2023/01/23 08:07:22;;;;;;;5.03;3.43;;;;;;;-141.59;100.00;61776.25;4947627;29;20213;-79
2023/01/23 08:09:49;;;;;;;6.33;4.10;;;;;;;-141.59;100.00;61776.25;4935247;28;20262;-80
2023/01/23 08:12:18;;;;;;;5.53;4.03;;;;;;;-141.59;100.00;61776.25;4954343;28;20237;-80
2023/01/23 08:14:46;;;;;;;9.87;4.40;;;;;;;-141.59;100.00;61776.25;4957767;28;20289;-80
2023/01/23 08:17:13;;;;;;;7.23;3.57;;;;;;;-141.59;100.00;61776.25;4950834;28;20232;-80
2023/01/23 08:19:40;;;;;;;7.83;4.00;;;;;;;-141.59;100.00;61776.25;4959155;28;20229;-80
2023/01/23 08:22:08;;;;;;;5.90;3.53;;;;;;;-141.59;100.00;61776.25;4950537;28;20267;-80
2023/01/23 08:24:35;;;;;;;11.20;6.13;;;;;;;-141.59;100.00;61776.25;4953776;28;20208;-80
2023/01/23 08:27:02;;;;;;;5.60;3.70;;;;;;;-141.59;100.00;61776.25;4959651;28;20209;-80
2023/01/23 08:29:31;;;;;;;9.47;4.03;;;;;;;-141.59;100.00;61776.25;4955479;28;20221;-81
2023/01/23 08:31:58;;;;;;;6.70;4.10;;;;;;;-141.59;100.00;61776.25;4954535;28;20271;-80
2023/01/23 08:34:26;;;;;;;6.90;4.13;;;;;;;-141.59;100.00;61776.25;4954530;28;20311;-80
2023/01/23 08:36:53;;;;;;;7.13;4.20;;;;;;;-141.59;100.00;61776.25;4956353;28;20225;-80
2023/01/23 08:39:20;;;;;;;5.63;3.90;;;;;;;-141.59;100.00;61776.25;4954427;28;20211;-81
2023/01/23 08:41:47;;;;;;;8.07;4.23;;;;;;;-141.59;100.00;61776.25;4949791;28;20210;-81
2023/01/23 08:44:14;;;;;;;10.87;3.90;;;;;;;-141.59;100.00;61776.25;4956753;28;20220;-80
2023/01/23 08:46:43;;;;;;;5.43;3.77;;;;;;;-141.59;100.00;61776.25;4946826;28;20296;-80
2023/01/23 08:49:10;;;;;;;5.63;3.80;;;;;;;-141.59;100.00;61776.25;4945535;28;20232;-80
2023/01/23 08:51:38;;;;;;;6.53;3.73;;;;;;;-141.59;100.00;61776.25;4945919;28;20209;-80
2023/01/23 08:54:05;;;;;;;5.83;3.70;;;;;;;-141.59;100.00;61776.25;4944522;28;20202;-79
2023/01/23 08:56:32;;;;;;;8.43;3.70;;;;;;;-141.59;100.00;61776.25;4953638;28;20233;-80
2023/01/23 08:58:59;;;;;;;7.23;3.87;;;;;;;-141.59;100.00;61776.25;4943241;29;20213;-79
2023/01/23 09:01:27;;;;;;;5.20;3.73;;;;;;;-141.59;100.00;61776.25;4940865;29;20206;-80
2023/01/23 09:03:56;;;;;;;7.20;3.90;;;;;;;-141.59;100.00;61776.25;4947082;29;20209;-80
2023/01/23 09:06:23;;;;;;;6.47;3.60;;;;;;;-141.59;100.00;61776.25;4947986;29;20233;-80
2023/01/23 09:08:51;;;;;;;6.40;3.73;;;;;;;-141.59;100.00;61776.25;4945209;28;20222;-80
2023/01/23 09:11:18;;;;;;;5.60;3.70;;;;;;;-141.59;100.00;61776.25;4959573;28;20240;-80
2023/01/23 09:13:46;;;;;;;9.50;4.10;;;;;;;-141.59;100.00;61776.25;4952638;29;20197;-81
2023/01/23 09:16:13;;;;;;;4.90;3.43;;;;;;;-141.59;100.00;61776.25;4937017;28;20222;-80
2023/01/23 09:18:40;;;;;;;8.97;4.00;;;;;;;-141.59;100.00;61776.25;4937911;28;20206;-80
2023/01/23 09:21:10;;;;;;;11.13;4.17;;;;;;;-141.59;100.00;61776.25;4951265;29;20200;-79
2023/01/23 09:23:37;;;;;;;10.80;3.93;;;;;;;-141.59;100.00;61776.25;4946232;29;20297;-80
2023/01/23 09:26:05;;;;;;;6.77;4.00;;;;;;;-141.59;100.00;61776.25;4959548;28;20209;-80
2023/01/23 09:28:33;;;;;;;10.30;3.83;;;;;;;-141.59;100.00;61776.25;4945488;29;20229;-80
2023/01/23 09:31:03;;;;;;;6.63;4.00;;;;;;;-141.59;100.00;61776.25;4939406;29;20207;-80
2023/01/23 09:33:30;;;;;;;7.47;3.97;;;;;;;-141.59;100.00;61776.25;4946116;29;20238;-80
2023/01/23 09:35:57;;;;;;;11.07;3.93;;;;;;;-141.59;100.00;61776.25;4939623;29;20212;-80
2023/01/23 09:38:26;;;;;;;7.60;4.20;;;;;;;-141.59;100.00;61776.25;4949134;29;20289;-80
2023/01/23 09:40:58;;;;;;;8.03;4.20;;;;;;;-141.59;100.00;61776.25;4951738;29;20296;-80
2023/01/23 09:43:35;;;;;;;11.47;4.10;;;;;;;-141.59;100.00;61776.25;4948968;29;20221;-80
2023/01/23 09:46:07;;;;;;;6.53;4.13;;;;;;;-141.59;100.00;61776.25;4946161;29;20210;-80
2023/01/23 09:48:43;;;;;;;5.50;3.83;;;;;;;-141.59;100.00;61776.25;4946419;29;20230;-80
2023/01/23 09:51:20;;;;;;;5.20;3.80;;;;;;;-141.59;100.00;61776.25;4948208;29;20209;-80
2023/01/23 09:53:49;;;;;;;6.50;3.97;;;;;;;-141.59;100.00;61776.25;4948465;29;20206;-80
2023/01/23 09:56:31;;;;;;;4.63;3.40;;;;;;;-141.59;100.00;61776.25;4945839;28;20208;-80
2023/01/23 09:59:03;;;;;;;4.77;3.37;;;;;;;-141.59;100.00;61776.25;4938661;29;20212;-81
2023/01/23 10:01:32;;;;;;;5.23;3.27;;;;;;;-141.59;100.00;61776.25;4949224;29;20303;-80
2023/01/23 10:04:00;;;;;;;4.57;3.20;;;;;;;-141.59;100.00;61776.25;4940666;29;20237;-81
2023/01/23 10:06:30;;;;;;;4.70;3.43;;;;;;;-141.59;100.00;61776.25;4953145;28;20258;-80
2023/01/23 10:09:22;;;;;;;9.60;3.87;;;;;;;-141.59;100.00;61776.25;4927822;29;20218;-80
2023/01/23 10:11:59;;;;;;;9.70;4.53;;;;;;;-141.59;100.00;61776.25;4950630;28;20216;-80
2023/01/23 10:14:46;;;;;;;7.00;4.80;;;;;;;-141.59;100.00;61776.25;4944644;29;20209;-80
2023/01/23 10:17:24;;;;;;;8.40;5.30;;;;;;;-141.59;100.00;61776.25;4950102;28;20225;-80
2023/01/23 10:20:10;;;;;;;8.33;5.33;;;;;;;-141.59;100.00;61776.25;4935691;29;20254;-80
2023/01/23 10:22:42;;;;;;;10.63;5.30;;;;;;;-141.59;100.00;61776.25;4950815;29;20214;-80
2023/01/23 10:25:18;;;;;;;7.77;4.70;;;;;;;-141.59;100.00;61776.25;4948141;29;20214;-80
2023/01/23 10:27:48;;;;;;;11.50;5.50;;;;;;;-141.59;100.00;61776.25;4930418;28;20209;-81
2023/01/23 10:30:25;;;;;;;10.10;5.77;;;;;;;-141.59;100.00;61776.25;4937194;29;20224;-80
2023/01/23 10:32:57;;;;;;;13.73;5.73;;;;;;;-141.59;100.00;61776.25;4937283;29;20209;-80
2023/01/23 10:35:29;;;;;;;9.67;4.83;;;;;;;-141.59;100.00;61776.25;4929342;29;20289;-80
2023/01/23 10:38:02;;;;;;;8.63;5.13;;;;;;;-141.59;100.00;61776.25;4934638;29;20209;-80
2023/01/23 10:43:18;;;;;;;10.17;5.13;;;;;;;-141.59;100.00;61776.25;4912088;29;20220;-80
2023/01/23 10:45:46;;;;;;;14.13;5.57;;;;;;;-141.59;100.00;61776.25;4931330;29;20207;-81
2023/01/23 10:48:43;;;;;;;10.13;5.90;;;;;;;-141.59;100.00;61776.25;4911466;29;20257;-80
2023/01/23 10:51:31;;;;;;;10.67;6.27;;;;;;;-141.59;100.00;61776.25;4904126;29;20253;-80
2023/01/23 10:54:17;;;;;;;9.93;6.27;;;;;;;-141.59;100.00;61776.25;4925823;29;20213;-80
2023/01/23 10:56:54;;;;;;;9.03;5.77;;;;;;;-141.59;100.00;61776.25;4929873;29;20214;-80
2023/01/23 10:59:28;;;;;;;12.33;6.03;;;;;;;-141.59;100.00;61776.25;4899290;29;20301;-80
2023/01/23 11:01:58;;;;;;;12.53;6.97;;;;;;;-141.59;100.00;61776.25;4916521;29;20216;-80
2023/01/23 11:04:27;;;;;;;10.03;6.83;;;;;;;-141.59;100.00;61776.25;4915736;29;20214;-80
2023/01/23 11:07:06;;;;;;;9.27;6.63;;;;;;;-141.59;100.00;61776.25;4912926;29;20262;-80
2023/01/23 11:09:45;;;;;;;7.30;5.37;;;;;;;-141.59;100.00;61776.25;4902489;29;20222;-81
2023/01/23 11:12:18;;;;;;;7.30;5.10;;;;;;;-141.59;100.00;61776.25;4918185;29;20219;-81
2023/01/23 11:14:46;;;;;;;7.30;4.80;;;;;;;-141.59;100.00;61776.25;4904238;29;20210;-80
2023/01/23 11:17:17;;;;;;;8.50;5.30;;;;;;;-141.59;100.00;61776.25;4919440;29;20225;-80
2023/01/23 11:19:46;;;;;;;9.33;5.77;;;;;;;-141.59;100.00;61776.25;4908295;29;20227;-80
2023/01/23 11:22:39;;;;;;;15.90;7.50;;;;;;;-141.59;100.00;61776.25;4905663;29;20203;-80
2023/01/23 11:25:28;;;;;;;12.93;5.77;;;;;;;-141.59;100.00;61776.25;4896263;29;20206;-80
2023/01/23 11:28:02;;;;;;;8.60;5.53;;;;;;;-141.59;100.00;61776.25;4906520;29;20296;-80
2023/01/23 11:30:39;;;;;;;8.27;5.30;;;;;;;-141.59;100.00;61776.25;4925221;29;20312;-80